Time;durP1;ratioP1;P1;durP2;ratioP2;P2;SDS_P1;SDS_P2;PMS_P1;PMS_P2;Temp;Humidity;BMP_temperature;BMP_pressure;BME280_temperature;BME280_humidity;BME280_pressure;Samples;Min_cycle;Max_cycle;Signal;HPM_P1;HPM_P2
2021/12/02 00:01:35;;;;;;;4.70;0.95;;;;;;;;;;5074518;28;20036;-81
2021/12/02 00:04:01;;;;;;;7.65;1.42;;;;;;;;;;5040733;28;20048;-81
2021/12/02 00:06:28;;;;;;;4.72;1.25;;;;;;;;;;5004593;28;20041;-81
2021/12/02 00:08:53;;;;;;;3.92;1.20;;;3.90;99.90;;;;;;5007329;28;20045;-81
2021/12/02 00:11:20;;;;;;;5.80;1.23;;;4.10;99.90;;;;;;5057195;28;20049;-82
2021/12/02 00:21:30;;;;;;;6.45;1.20;;;3.80;99.90;;;;;;5038770;28;20143;-81
2021/12/02 00:24:06;;;;;;;8.93;1.42;;;3.80;99.90;;;;;;5038297;28;20389;-81
2021/12/02 00:26:37;;;;;;;8.45;1.17;;;3.50;99.90;;;;;;5034999;28;20037;-81
2021/12/02 00:29:06;;;;;;;5.97;0.85;;;3.50;99.90;;;;;;5008821;28;20037;-81
2021/12/02 00:31:36;;;;;;;6.15;1.10;;;3.50;99.90;;;;;;5057930;28;20091;-81
2021/12/02 00:34:04;;;;;;;5.82;1.30;;;3.50;99.90;;;;;;5023092;28;20132;-81
2021/12/02 00:36:32;;;;;;;4.45;1.08;;;3.40;99.90;;;;;;5046643;28;20357;-81
2021/12/02 00:39:00;;;;;;;5.13;1.20;;;3.40;99.90;;;;;;5026163;28;20045;-81
2021/12/02 00:41:27;;;;;;;7.72;1.30;;;3.40;99.90;;;;;;5037447;28;20518;-81
2021/12/02 00:43:57;;;;;;;6.88;1.98;;;3.20;99.90;;;;;;5039576;28;20064;-81
2021/12/02 00:46:25;;;;;;;5.93;1.33;;;3.30;99.90;;;;;;5023766;28;20370;-81
2021/12/02 00:48:53;;;;;;;5.72;1.30;;;3.30;99.90;;;;;;5040960;28;20484;-81
2021/12/02 00:51:20;;;;;;;7.07;1.48;;;3.10;99.90;;;;;;5044625;28;20103;-82
2021/12/02 00:53:52;;;;;;;5.55;1.35;;;3.20;99.90;;;;;;5051342;28;20066;-81
2021/12/02 00:56:22;;;;;;;7.30;1.40;;;3.20;99.90;;;;;;5005487;28;20076;-81
2021/12/02 00:58:49;;;;;;;4.97;1.30;;;;;;;;;;5059574;28;20047;-81
2021/12/02 01:01:16;;;;;;;3.70;1.20;;;;;;;;;;5036357;28;20037;-81
2021/12/02 01:03:43;;;;;;;7.50;1.27;;;;;;;;;;5042517;28;20033;-81
2021/12/02 01:06:09;;;;;;;9.48;1.52;;;;;;;;;;5062393;28;20086;-81
2021/12/02 01:08:37;;;;;;;7.50;1.10;;;3.00;99.90;;;;;;5060939;28;20037;-80
2021/12/02 01:11:04;;;;;;;5.38;0.93;;;;;;;;;;5029148;28;20463;-81
2021/12/02 01:13:31;;;;;;;8.85;1.20;;;;;;;;;;5025502;28;20029;-81
2021/12/02 01:15:57;;;;;;;4.72;1.83;;;;;;;;;;5066566;28;20116;-81
2021/12/02 01:18:24;;;;;;;12.60;1.55;;;;;;;;;;5050843;28;20036;-82
2021/12/02 01:20:52;;;;;;;7.63;1.30;;;;;;;;;;5075753;28;20049;-81
2021/12/02 01:23:19;;;;;;;5.28;0.90;;;;;;;;;;5043083;28;20033;-81
2021/12/02 01:25:53;;;;;;;12.00;2.78;;;;;;;;;;5057948;28;20037;-81
2021/12/02 01:28:19;;;;;;;4.28;1.33;;;;;;;;;;5044777;28;20075;-81
2021/12/02 01:30:46;;;;;;;4.40;1.20;;;;;;;;;;5074005;28;20076;-81
2021/12/02 01:33:14;;;;;;;8.25;2.75;;;;;;;;;;5075255;28;20077;-81
2021/12/02 01:35:40;;;;;;;5.32;1.33;;;;;;;;;;5048956;28;20041;-80
2021/12/02 01:38:06;;;;;;;6.75;1.63;;;;;;;;;;5048479;28;20033;-80
2021/12/02 01:40:33;;;;;;;11.77;1.77;;;;;;;;;;5063203;28;20106;-81
2021/12/02 01:42:59;;;;;;;6.40;1.10;;;;;;;;;;5038671;28;20040;-80
2021/12/02 01:45:27;;;;;;;5.32;1.30;;;;;;;;;;5073666;28;20048;-81
2021/12/02 01:47:55;;;;;;;5.25;1.30;;;;;;;;;;5071481;28;20136;-81
2021/12/02 01:50:22;;;;;;;8.27;1.13;;;;;;;;;;5039696;28;20037;-80
2021/12/02 01:52:54;;;;;;;8.27;1.35;;;;;;;;;;5024052;28;20074;-80
2021/12/02 01:55:21;;;;;;;6.38;1.20;;;;;;;;;;5039263;28;20118;-81
2021/12/02 01:57:50;;;;;;;5.85;1.05;;;;;;;;;;5072800;28;20083;-80
2021/12/02 02:00:20;;;;;;;7.57;1.55;;;;;;;;;;5071723;28;20079;-80
2021/12/02 02:02:47;;;;;;;3.72;0.80;;;;;;;;;;5069666;28;20132;-81
2021/12/02 02:05:16;;;;;;;3.85;0.80;;;3.40;99.90;;;;;;5010388;28;20114;-82
2021/12/02 02:08:12;;;;;;;4.45;1.20;;;3.50;99.90;;;;;;5059276;28;20127;-82
2021/12/02 02:10:41;;;;;;;3.83;0.90;;;3.60;99.90;;;;;;5044173;28;20076;-82
2021/12/02 02:13:09;;;;;;;2.88;0.70;;;3.20;99.90;;;;;;5065890;28;20162;-81
2021/12/02 02:15:37;;;;;;;2.55;0.70;;;3.40;99.90;;;;;;5027700;28;20028;-81
2021/12/02 02:18:23;;;;;;;7.18;0.80;;;3.50;99.90;;;;;;5024122;28;20029;-82
2021/12/02 02:23:28;;;;;;;8.02;1.00;;;3.30;99.90;;;;;;5042164;28;20095;-81
2021/12/02 02:25:54;;;;;;;3.28;0.80;;;3.10;99.90;;;;;;5075278;28;20098;-82
2021/12/02 02:28:20;;;;;;;9.98;1.33;;;3.10;99.90;;;;;;5023652;28;20041;-81
2021/12/02 02:30:47;;;;;;;4.43;0.82;;;3.00;99.90;;;;;;5059208;28;20087;-81
2021/12/02 02:33:14;;;;;;;5.70;0.95;;;;;;;;;;5038865;28;20047;-81
2021/12/02 02:35:42;;;;;;;3.10;0.90;;;;;;;;;;5061781;28;20445;-82
2021/12/02 02:38:08;;;;;;;3.67;0.80;;;;;;;;;;5074747;28;20040;-81
2021/12/02 02:40:36;;;;;;;4.93;0.93;;;;;;;;;;5022604;28;20499;-81
2021/12/02 02:43:08;;;;;;;6.35;1.02;;;;;;;;;;5079566;28;20124;-82
2021/12/02 02:45:34;;;;;;;6.05;1.20;;;;;;;;;;5022285;28;20148;-82
2021/12/02 02:48:01;;;;;;;5.78;0.85;;;;;;;;;;5029147;28;20045;-82
2021/12/02 02:50:27;;;;;;;4.20;0.90;;;;;;;;;;5041376;28;20534;-81
2021/12/02 02:53:04;;;;;;;3.80;0.75;;;;;;;;;;5041612;28;20049;-82
2021/12/02 02:55:32;;;;;;;6.75;0.90;;;;;;;;;;5044758;28;20124;-81
2021/12/02 03:00:33;;;;;;;7.72;1.60;;;;;;;;;;5027937;28;20143;-82
2021/12/02 03:03:54;;;;;;;3.35;0.60;;;;;;;;;;5034815;28;20047;-81
2021/12/02 03:08:39;;;;;;;6.22;0.70;;;;;;;;;;5069901;28;20107;-81
2021/12/02 03:11:06;;;;;;;4.93;1.13;;;;;;;;;;5070285;28;20029;-82
2021/12/02 03:13:39;;;;;;;6.22;1.00;;;;;;;;;;5020114;28;20585;-81
2021/12/02 03:18:52;;;;;;;4.60;1.20;;;;;;;;;;5074531;28;20115;-81
2021/12/02 03:21:22;;;;;;;4.28;1.15;;;;;;;;;;5023407;28;20142;-81
2021/12/02 03:23:56;;;;;;;4.65;0.93;;;;;;;;;;5039252;28;20037;-81
2021/12/02 03:26:22;;;;;;;2.95;0.70;;;;;;;;;;5027675;28;20523;-81
2021/12/02 03:28:49;;;;;;;4.65;0.80;;;;;;;;;;5022050;28;20033;-81
2021/12/02 03:31:16;;;;;;;6.93;1.23;;;;;;;;;;5021569;28;20068;-81
2021/12/02 03:33:42;;;;;;;5.50;1.02;;;;;;;;;;5074323;28;20044;-80
2021/12/02 03:36:09;;;;;;;3.40;0.80;;;;;;;;;;5039679;28;20106;-80
2021/12/02 03:38:35;;;;;;;5.30;0.80;;;;;;;;;;5025188;28;20128;-80
2021/12/02 03:41:01;;;;;;;5.47;0.77;;;;;;;;;;5071969;28;20053;-81
2021/12/02 03:43:33;;;;;;;3.35;0.50;;;;;;;;;;5052627;28;20048;-81
2021/12/02 03:45:59;;;;;;;3.92;0.70;;;;;;;;;;5022940;28;20046;-81
2021/12/02 03:48:25;;;;;;;5.63;1.20;;;;;;;;;;5020083;28;20417;-80
2021/12/02 03:50:51;;;;;;;3.83;0.70;;;;;;;;;;5008088;28;20044;-81
2021/12/02 03:53:17;;;;;;;1.45;0.50;;;;;;;;;;5021413;28;20044;-81
2021/12/02 03:55:43;;;;;;;1.60;0.80;;;;;;;;;;5020515;28;20037;-81
2021/12/02 03:58:09;;;;;;;5.68;0.80;;;;;;;;;;5057168;28;20033;-81
2021/12/02 04:00:36;;;;;;;2.95;0.90;;;;;;;;;;5039053;28;20040;-81
2021/12/02 04:03:02;;;;;;;8.13;2.20;;;;;;;;;;5038578;28;20175;-81
2021/12/02 04:05:28;;;;;;;2.42;0.75;;;;;;;;;;5053635;28;20060;-81
2021/12/02 04:07:54;;;;;;;4.45;0.70;;;;;;;;;;5056050;28;20104;-81
2021/12/02 04:10:21;;;;;;;4.15;0.82;;;;;;;;;;5033285;28;20497;-81
2021/12/02 04:13:00;;;;;;;3.28;0.82;;;;;;;;;;5016738;28;20042;-80
2021/12/02 04:15:30;;;;;;;4.30;0.90;;;;;;;;;;5034370;28;20159;-80
2021/12/02 04:17:56;;;;;;;3.58;0.77;;;;;;;;;;5026246;28;20087;-81
2021/12/02 04:20:24;;;;;;;4.75;0.65;;;;;;;;;;5075379;28;20124;-80
2021/12/02 04:22:51;;;;;;;3.58;1.00;;;2.60;99.90;;;;;;5070771;28;20049;-81
2021/12/02 04:25:17;;;;;;;4.65;1.00;;;3.50;99.90;;;;;;5067970;28;20497;-81
2021/12/02 04:27:44;;;;;;;4.93;1.02;;;3.10;99.90;;;;;;5024679;28;20404;-81
2021/12/02 04:30:13;;;;;;;2.65;0.80;;;2.40;99.90;;;;;;5058238;28;20397;-80
2021/12/02 04:32:40;;;;;;;3.65;0.80;;;2.20;99.90;;;;;;5063180;28;20036;-81
2021/12/02 04:35:06;;;;;;;3.67;0.85;;;3.50;99.90;;;;;;5043977;28;20064;-80
2021/12/02 04:37:32;;;;;;;3.42;0.98;;;2.10;99.90;;;;;;5023352;28;20117;-81
2021/12/02 04:39:58;;;;;;;7.60;1.13;;;2.00;99.90;;;;;;5045000;28;20049;-81
2021/12/02 04:42:25;;;;;;;3.63;1.10;;;1.90;99.90;;;;;;5010742;28;20063;-80
2021/12/02 04:44:51;;;;;;;4.88;1.02;;;1.90;99.90;;;;;;5023316;28;20053;-80
2021/12/02 04:47:17;;;;;;;5.22;0.93;;;1.90;99.90;;;;;;5057390;28;20048;-81
2021/12/02 04:49:44;;;;;;;3.53;1.10;;;1.80;99.90;;;;;;5058704;28;20045;-81
2021/12/02 04:52:10;;;;;;;4.38;2.45;;;2.00;99.90;;;;;;5025522;28;20040;-80
2021/12/02 04:54:35;;;;;;;3.97;0.73;;;1.70;99.90;;;;;;5041680;28;20331;-80
2021/12/02 04:57:02;;;;;;;4.40;1.15;;;1.70;99.90;;;;;;5014616;28;20040;-80
2021/12/02 04:59:27;;;;;;;2.70;0.80;;;1.70;99.90;;;;;;5009269;28;20134;-81
2021/12/02 05:01:53;;;;;;;8.40;1.52;;;1.60;99.90;;;;;;5044964;28;20080;-80
2021/12/02 05:04:20;;;;;;;6.63;0.82;;;1.60;99.90;;;;;;5076096;28;20059;-81
2021/12/02 05:06:46;;;;;;;4.28;1.20;;;1.60;99.90;;;;;;5030449;28;20074;-81
2021/12/02 05:09:12;;;;;;;3.28;0.90;;;1.60;99.90;;;;;;5016694;28;20037;-80
2021/12/02 05:11:38;;;;;;;5.28;0.80;;;1.80;99.90;;;;;;5023374;28;20824;-80
2021/12/02 05:14:05;;;;;;;7.80;1.23;;;1.70;99.90;;;;;;5046549;28;20485;-81
2021/12/02 05:16:31;;;;;;;1.80;0.75;;;3.00;99.90;;;;;;4996873;28;20036;-81
2021/12/02 05:18:57;;;;;;;7.72;1.30;;;1.80;99.90;;;;;;5046636;28;20034;-81
2021/12/02 05:21:23;;;;;;;1.95;0.93;;;2.80;99.90;;;;;;5026249;28;20103;-81
2021/12/02 05:23:53;;;;;;;4.38;0.90;;;1.90;99.90;;;;;;5062147;28;20435;-81
2021/12/02 05:26:22;;;;;;;3.05;1.00;;;2.00;99.90;;;;;;5041155;28;20115;-81
2021/12/02 05:28:48;;;;;;;4.68;1.02;;;2.10;99.90;;;;;;5057175;28;20040;-81
2021/12/02 05:31:14;;;;;;;4.45;0.95;;;2.10;99.90;;;;;;5025314;28;20048;-80
2021/12/02 05:33:40;;;;;;;5.57;1.08;;;2.10;99.90;;;;;;5041867;28;20098;-81
2021/12/02 05:36:05;;;;;;;3.53;1.05;;;2.40;99.90;;;;;;5009546;28;20099;-80
2021/12/02 05:38:31;;;;;;;2.75;0.90;;;2.20;99.90;;;;;;5059103;28;20095;-80
2021/12/02 05:40:57;;;;;;;3.33;1.27;;;2.70;99.90;;;;;;5029560;28;20548;-80
2021/12/02 05:43:23;;;;;;;2.58;1.23;;;2.30;99.90;;;;;;5066530;28;20055;-80
2021/12/02 05:45:48;;;;;;;2.28;1.10;;;2.30;99.90;;;;;;5029123;28;20033;-81
2021/12/02 05:48:14;;;;;;;5.03;1.02;;;2.30;99.90;;;;;;5048893;28;20037;-80
2021/12/02 05:50:41;;;;;;;3.25;1.10;;;2.50;99.90;;;;;;5045619;28;20045;-80
2021/12/02 05:53:06;;;;;;;2.83;1.00;;;2.20;99.90;;;;;;5012342;28;20045;-81
2021/12/02 05:55:32;;;;;;;3.33;0.95;;;2.20;99.90;;;;;;5026884;28;20059;-80
2021/12/02 05:57:58;;;;;;;6.78;1.20;;;2.20;99.90;;;;;;5027287;28;20556;-80
2021/12/02 06:00:24;;;;;;;2.75;1.35;;;2.30;99.90;;;;;;5046073;28;20040;-80
2021/12/02 06:02:50;;;;;;;2.95;0.80;;;3.30;99.90;;;;;;5083253;28;20392;-80
2021/12/02 06:05:22;;;;;;;1.35;0.60;;;2.30;99.90;;;;;;5032670;28;20098;-79
2021/12/02 06:07:50;;;;;;;4.38;0.80;;;3.30;99.90;;;;;;5046111;28;20097;-79
2021/12/02 06:10:17;;;;;;;5.38;0.93;;;2.20;99.90;;;;;;5026705;28;21516;-79
2021/12/02 06:12:43;;;;;;;1.65;0.60;;;2.10;99.90;;;;;;5060097;28;20646;-78
2021/12/02 06:15:09;;;;;;;2.85;0.63;;;2.00;99.90;;;;;;5043898;28;20139;-79
2021/12/02 06:17:36;;;;;;;1.95;0.70;;;2.80;99.90;;;;;;5025869;28;20124;-80
2021/12/02 06:20:06;;;;;;;0.63;0.45;;;1.90;99.90;;;;;;5045383;28;20048;-79
2021/12/02 06:22:33;;;;;;;1.58;0.40;;;1.70;99.90;;;;;;5010779;28;20044;-80
2021/12/02 06:27:44;;;;;;;1.83;0.65;;;1.50;99.90;;;;;;5050745;28;20045;-80
2021/12/02 06:30:13;;;;;;;2.70;0.47;;;1.50;99.90;;;;;;5029776;28;20049;-80
2021/12/02 06:32:38;;;;;;;1.48;0.52;;;1.40;99.90;;;;;;5043782;28;20378;-81
2021/12/02 06:35:05;;;;;;;2.67;0.60;;;1.40;99.90;;;;;;5048187;28;20148;-80
2021/12/02 06:37:30;;;;;;;1.98;0.82;;;1.60;99.90;;;;;;5036673;28;20059;-80
2021/12/02 06:39:56;;;;;;;2.65;0.73;;;2.20;99.90;;;;;;5061032;28;20052;-80
2021/12/02 06:42:22;;;;;;;4.13;0.90;;;1.30;99.90;;;;;;5041755;28;20128;-80
2021/12/02 06:44:48;;;;;;;2.42;0.73;;;1.30;99.90;;;;;;5066776;28;20033;-80
2021/12/02 06:47:14;;;;;;;3.28;0.80;;;1.30;99.90;;;;;;5010828;28;20126;-80
2021/12/02 06:49:40;;;;;;;3.15;0.60;;;1.20;99.90;;;;;;5056764;28;20123;-81
2021/12/02 06:52:12;;;;;;;1.63;0.70;;;1.20;99.90;;;;;;5030413;28;20037;-80
2021/12/02 06:54:39;;;;;;;1.52;0.50;;;1.20;99.90;;;;;;5048299;28;20052;-79
2021/12/02 06:57:05;;;;;;;1.65;0.50;;;1.10;99.90;;;;;;5034067;28;20037;-79
2021/12/02 06:59:31;;;;;;;1.85;0.38;;;1.10;99.90;;;;;;5067874;28;20041;-79
2021/12/02 07:01:57;;;;;;;2.35;0.57;;;1.10;99.90;;;;;;5051031;28;20041;-79
2021/12/02 07:04:23;;;;;;;3.75;0.63;;;1.10;99.90;;;;;;5076078;28;20044;-79
2021/12/02 07:06:48;;;;;;;2.58;0.63;;;1.20;99.90;;;;;;5030788;28;20044;-80
2021/12/02 07:09:14;;;;;;;2.08;0.70;;;1.10;99.90;;;;;;5060663;28;20056;-81
2021/12/02 07:11:41;;;;;;;2.70;0.68;;;2.10;99.90;;;;;;5029987;28;20535;-80
2021/12/02 07:14:11;;;;;;;1.33;0.60;;;1.10;99.90;;;;;;5031567;28;20028;-77
2021/12/02 07:16:38;;;;;;;3.15;0.95;;;2.00;99.90;;;;;;5073400;28;20033;-80
2021/12/02 07:19:06;;;;;;;0.80;0.77;;;1.10;99.90;;;;;;5033820;28;20045;-81
2021/12/02 07:21:34;;;;;;;1.05;0.52;;;1.00;99.90;;;;;;5071118;28;20041;-80
2021/12/02 07:24:00;;;;;;;5.18;1.00;;;1.40;99.90;;;;;;5056579;28;20045;-81
2021/12/02 07:26:25;;;;;;;2.85;1.13;;;1.10;99.90;;;;;;5017369;28;20048;-80
2021/12/02 07:28:51;;;;;;;2.40;1.20;;;2.30;99.90;;;;;;5049434;28;20396;-80
2021/12/02 07:31:19;;;;;;;1.52;0.90;;;1.10;99.90;;;;;;5063457;28;20128;-80
2021/12/02 07:33:48;;;;;;;2.13;1.02;;;1.10;99.90;;;;;;5049351;28;20045;-80
2021/12/02 07:36:15;;;;;;;4.22;1.10;;;1.10;99.90;;;;;;5031921;28;20171;-79
2021/12/02 07:38:41;;;;;;;1.65;1.10;;;1.10;99.90;;;;;;5055579;28;20109;-80
2021/12/02 07:41:07;;;;;;;3.38;1.52;;;2.20;99.90;;;;;;5001379;28;20607;-80
2021/12/02 07:43:35;;;;;;;1.95;1.40;;;2.20;99.90;;;;;;5048991;28;20049;-80
2021/12/02 07:46:02;;;;;;;5.32;1.48;;;1.20;99.90;;;;;;5030860;28;20048;-80
2021/12/02 07:48:28;;;;;;;4.55;1.35;;;1.20;99.90;;;;;;5029613;28;20072;-81
2021/12/02 07:51:02;;;;;;;4.60;1.80;;;1.20;99.90;;;;;;5051366;28;20491;-80
2021/12/02 07:53:28;;;;;;;4.43;1.63;;;1.30;99.90;;;;;;5049862;28;20456;-79
2021/12/02 07:55:56;;;;;;;3.42;1.65;;;1.30;99.90;;;;;;5050870;28;20037;-81
2021/12/02 07:58:24;;;;;;;2.35;1.40;;;1.30;99.90;;;;;;5027897;28;20323;-81
2021/12/02 08:00:50;;;;;;;4.65;1.55;;;2.90;99.90;;;;;;5048086;28;20051;-82
2021/12/02 08:03:16;;;;;;;4.65;1.63;;;1.30;99.90;;;;;;5065105;28;20048;-81
2021/12/02 08:05:42;;;;;;;5.60;1.58;;;1.30;99.90;;;;;;5035426;28;20033;-80
2021/12/02 08:08:09;;;;;;;5.25;1.67;;;1.30;99.90;;;;;;5030971;28;20251;-80
2021/12/02 08:10:36;;;;;;;3.83;1.48;;;1.30;99.90;;;;;;5046010;28;20033;-81
2021/12/02 08:13:03;;;;;;;5.22;1.92;;;1.40;99.90;;;;;;5032721;28;20044;-82
2021/12/02 08:15:30;;;;;;;3.88;1.70;;;1.40;99.90;;;;;;5046840;28;20047;-80
2021/12/02 08:17:57;;;;;;;2.80;1.80;;;1.50;99.90;;;;;;5066590;28;20146;-77
2021/12/02 08:20:26;;;;;;;5.35;1.88;;;1.60;99.90;;;;;;5052140;28;20045;-81
2021/12/02 08:22:52;;;;;;;6.63;2.20;;;2.70;99.90;;;;;;5052081;28;20049;-81
2021/12/02 08:25:20;;;;;;;5.25;2.33;;;2.10;99.90;;;;;;5046161;28;20049;-82
2021/12/02 08:27:47;;;;;;;4.70;2.10;;;1.70;99.90;;;;;;5061734;28;20041;-81
2021/12/02 08:30:15;;;;;;;5.32;1.92;;;2.00;99.90;;;;;;5015415;28;20075;-80
2021/12/02 08:32:42;;;;;;;6.10;2.00;;;1.70;99.90;;;;;;5052903;28;20129;-79
2021/12/02 08:35:10;;;;;;;3.60;2.42;;;1.70;99.90;;;;;;5071142;28;20037;-79
2021/12/02 08:37:40;;;;;;;2.90;1.88;;;1.80;99.90;;;;;;5056927;28;20068;-79
2021/12/02 08:40:07;;;;;;;10.95;2.20;;;1.80;99.90;;;;;;5055488;28;20052;-79
2021/12/02 08:42:33;;;;;;;5.40;2.47;;;1.80;99.90;;;;;;5030892;28;20044;-80
2021/12/02 08:45:00;;;;;;;8.70;2.30;;;2.70;99.90;;;;;;5052288;28;20033;-80
2021/12/02 08:47:28;;;;;;;4.95;2.53;;;1.80;99.90;;;;;;5052394;28;20036;-80
2021/12/02 08:49:55;;;;;;;5.78;2.22;;;1.80;99.90;;;;;;5080040;28;20410;-80
2021/12/02 08:52:26;;;;;;;4.07;2.80;;;1.80;99.90;;;;;;5045858;28;20098;-80
2021/12/02 08:54:53;;;;;;;4.70;2.25;;;1.90;99.90;;;;;;5061354;28;20061;-80
2021/12/02 08:57:21;;;;;;;4.10;2.45;;;2.50;99.90;;;;;;5060943;28;20051;-79
2021/12/02 08:59:48;;;;;;;4.28;2.75;;;3.00;99.90;;;;;;5062096;28;20144;-78
2021/12/02 09:02:15;;;;;;;7.15;2.42;;;1.90;99.90;;;;;;5030390;28;20123;-78
2021/12/02 09:04:41;;;;;;;6.45;2.53;;;1.90;99.90;;;;;;5041637;28;20041;-80
2021/12/02 09:07:07;;;;;;;4.65;2.35;;;2.00;99.90;;;;;;5044783;28;20071;-79
2021/12/02 09:09:33;;;;;;;8.65;2.75;;;2.00;99.90;;;;;;5032337;28;20927;-79
2021/12/02 09:11:59;;;;;;;4.55;2.75;;;2.40;99.90;;;;;;5027261;28;20038;-80
2021/12/02 09:14:25;;;;;;;6.03;2.70;;;2.00;99.90;;;;;;5070047;28;20392;-80
2021/12/02 09:16:51;;;;;;;5.85;2.67;;;2.50;99.90;;;;;;5055773;28;20045;-79
2021/12/02 09:19:20;;;;;;;4.15;2.65;;;2.10;99.90;;;;;;5063428;28;20051;-80
2021/12/02 09:21:47;;;;;;;4.55;2.50;;;2.20;99.90;;;;;;5067388;28;20037;-81
2021/12/02 09:24:18;;;;;;;4.53;2.30;;;2.20;99.90;;;;;;5027549;28;21032;-81
2021/12/02 09:26:48;;;;;;;4.30;2.17;;;2.30;99.90;;;;;;5023168;28;20040;-80
2021/12/02 09:29:15;;;;;;;5.05;2.30;;;2.30;99.90;;;;;;5051450;28;20170;-79
2021/12/02 09:31:41;;;;;;;7.15;2.78;;;2.60;99.90;;;;;;5037022;28;20074;-80
2021/12/02 09:34:07;;;;;;;5.22;2.20;;;2.60;99.90;;;;;;5033727;28;20489;-80
2021/12/02 09:36:33;;;;;;;7.70;2.47;;;2.70;99.90;;;;;;5027334;28;20044;-80
2021/12/02 09:38:59;;;;;;;6.15;2.38;;;2.90;99.90;;;;;;5063345;28;20072;-80
2021/12/02 09:41:28;;;;;;;4.03;2.08;;;2.80;99.90;;;;;;5055467;28;20147;-82
2021/12/02 09:43:53;;;;;;;5.25;2.10;;;3.00;99.90;;;;;;5001489;28;20051;-80
2021/12/02 09:46:19;;;;;;;7.10;2.25;;;2.90;99.90;;;;;;5055449;28;20487;-80
2021/12/02 09:48:46;;;;;;;5.35;2.25;;;2.90;99.90;;;;;;5058681;28;20037;-79
2021/12/02 09:51:18;;;;;;;8.45;2.28;;;2.90;99.90;;;;;;5038547;28;20064;-78
2021/12/02 09:53:56;;;;;;;3.75;2.55;;;2.90;99.90;;;;;;5039818;28;20042;-78
2021/12/02 09:56:27;;;;;;;5.63;1.80;;;3.00;99.90;;;;;;5048425;28;20040;-79
2021/12/02 09:58:56;;;;;;;3.35;1.70;;;3.00;99.90;;;;;;5067586;28;20493;-77
2021/12/02 10:01:27;;;;;;;3.85;1.42;;;3.00;99.90;;;;;;5078200;28;20036;-81
2021/12/02 10:04:03;;;;;;;4.97;2.35;;;3.10;99.90;;;;;;5063440;28;20052;-80
2021/12/02 10:06:31;;;;;;;4.15;1.50;;;3.10;99.90;;;;;;5035235;28;20076;-78
2021/12/02 10:09:08;;;;;;;5.50;1.88;;;3.20;99.90;;;;;;5039565;28;20045;-79
2021/12/02 10:11:59;;;;;;;4.75;1.80;;;3.90;99.90;;;;;;5061828;28;20060;-79
2021/12/02 10:14:37;;;;;;;2.70;1.65;;;4.00;99.90;;;;;;5064399;28;20080;-79
2021/12/02 10:17:38;;;;;;;6.18;2.10;;;3.50;99.90;;;;;;5051302;28;20041;-80
2021/12/02 10:23:18;;;;;;;3.53;1.48;;;3.80;99.90;;;;;;5036231;28;20306;-79
2021/12/02 10:26:05;;;;;;;4.70;1.57;;;3.80;99.90;;;;;;5018790;28;20049;-79
2021/12/02 10:28:35;;;;;;;2.47;1.35;;;3.80;99.90;;;;;;5058711;28;20302;-80
2021/12/02 10:31:04;;;;;;;3.55;1.38;;;4.80;99.90;;;;;;5033887;28;20087;-80
2021/12/02 10:33:36;;;;;;;0.93;0.75;;;3.70;99.90;;;;;;5057342;28;20111;-81
2021/12/02 10:36:05;;;;;;;2.17;0.90;;;3.50;99.90;;;;;;5054629;28;20041;-79
2021/12/02 10:38:45;;;;;;;76.78;39.72;;;3.20;99.90;;;;;;5043082;28;20120;-81
2021/12/02 10:41:17;;;;;;;16.85;8.25;;;3.00;99.90;;;;;;5032995;28;20056;-83
2021/12/02 10:44:05;;;;;;;15.05;5.50;;;3.10;99.90;;;;;;5084903;28;20053;-82
2021/12/02 10:46:32;;;;;;;5.43;1.85;;;2.60;99.90;;;;;;5041883;28;20493;-81
2021/12/02 10:48:57;;;;;;;2.60;1.30;;;3.10;99.90;;;;;;5032440;28;20487;-77
2021/12/02 10:51:46;;;;;;;3.17;0.98;;;3.10;99.90;;;;;;5045463;28;20127;-76
2021/12/02 10:54:17;;;;;;;4.30;1.17;;;2.20;99.90;;;;;;5032776;28;20044;-77
2021/12/02 10:56:49;;;;;;;9.15;1.50;;;2.40;99.90;;;;;;5046669;28;20465;-77
2021/12/02 10:59:36;;;;;;;3.90;0.90;;;2.30;99.90;;;;;;5057598;28;20045;-80
2021/12/02 11:02:22;;;;;;;2.22;1.00;;;3.20;99.90;;;;;;5074007;28;20409;-80
2021/12/02 11:05:07;;;;;;;2.58;1.00;;;2.30;99.90;;;;;;5043902;28;20475;-82
2021/12/02 11:07:39;;;;;;;2.85;0.70;;;2.30;99.90;;;;;;5038526;28;20044;-80
2021/12/02 11:10:15;;;;;;;1.08;0.60;;;2.20;99.90;;;;;;5060125;28;20068;-78
2021/12/02 11:12:49;;;;;;;2.85;1.27;;;2.20;99.90;;;;;;5062005;28;20037;-76
2021/12/02 11:15:18;;;;;;;7.68;2.85;;;2.70;99.90;;;;;;5049753;28;20179;-77
2021/12/02 11:17:52;;;;;;;6.57;2.60;;;2.40;99.90;;;;;;5024727;28;20037;-82
2021/12/02 11:20:31;;;;;;;2.38;1.35;;;2.40;99.90;;;;;;5045496;28;20040;-81
2021/12/02 11:23:31;;;;;;;3.38;1.15;;;2.40;99.90;;;;;;5062875;28;20067;-81
2021/12/02 11:25:59;;;;;;;6.88;2.53;;;2.40;99.90;;;;;;5057683;28;20042;-81
2021/12/02 11:28:30;;;;;;;3.80;1.35;;;3.30;99.90;;;;;;5048127;28;20490;-82
2021/12/02 11:30:58;;;;;;;3.30;1.30;;;2.40;99.90;;;;;;5028947;28;20037;-80
2021/12/02 11:33:31;;;;;;;4.25;2.03;;;2.60;99.90;;;;;;5043925;28;20123;-80
2021/12/02 11:35:57;;;;;;;10.38;5.65;;;2.60;99.90;;;;;;5036817;28;20041;-83
2021/12/02 11:38:26;;;;;;;5.88;3.08;;;2.50;99.90;;;;;;5073713;28;20558;-80
2021/12/02 11:40:55;;;;;;;5.10;1.38;;;2.40;99.90;;;;;;5014241;28;20505;-79
2021/12/02 11:43:25;;;;;;;1.70;1.00;;;3.90;99.90;;;;;;5059669;28;20049;-78
2021/12/02 11:45:51;;;;;;;5.90;1.75;;;2.30;99.90;;;;;;5040102;28;20124;-79
2021/12/02 11:48:37;;;;;;;1.30;0.85;;;3.40;99.90;;;;;;5048610;28;20037;-80
2021/12/02 11:51:06;;;;;;;1.55;0.90;;;2.20;99.90;;;;;;5048330;28;20060;-80
2021/12/02 11:53:32;;;;;;;5.47;1.33;;;2.90;99.90;;;;;;5047005;28;20037;-80
2021/12/02 11:56:08;;;;;;;3.55;1.40;;;2.10;99.90;;;;;;5011226;28;20033;-80
2021/12/02 11:58:34;;;;;;;3.75;1.33;;;2.20;99.90;;;;;;5065240;28;20045;-82
2021/12/02 12:01:00;;;;;;;2.30;1.15;;;2.20;99.90;;;;;;5044575;28;20068;-79
2021/12/02 12:03:34;;;;;;;2.58;1.10;;;2.30;99.90;;;;;;5044532;28;20501;-78
2021/12/02 12:06:03;;;;;;;4.88;2.08;;;3.10;99.90;;;;;;5021518;28;20045;-76
2021/12/02 12:08:38;;;;;;;2.92;1.38;;;2.60;99.90;;;;;;5073535;28;20045;-78
2021/12/02 12:11:23;;;;;;;3.63;1.50;;;2.70;99.90;;;;;;5049091;28;20037;-78
2021/12/02 12:13:59;;;;;;;1.75;1.20;;;2.80;99.90;;;;;;5059669;28;20044;-78
2021/12/02 12:16:26;;;;;;;2.83;1.27;;;2.80;99.90;;;;;;5077520;28;20396;-80
2021/12/02 12:18:53;;;;;;;2.20;1.27;;;2.80;99.90;;;;;;5078273;28;20033;-79
2021/12/02 12:21:37;;;;;;;3.45;2.60;;;2.80;99.90;;;;;;5048719;28;20041;-77
2021/12/02 12:24:04;;;;;;;2.45;1.40;;;2.80;99.90;;;;;;5059975;28;20059;-77
2021/12/02 12:26:38;;;;;;;2.78;1.77;;;2.70;99.90;;;;;;5057929;28;20142;-77
2021/12/02 12:29:07;;;;;;;1.85;1.20;;;2.70;99.90;;;;;;5067986;28;20041;-79
2021/12/02 12:31:45;;;;;;;3.42;1.70;;;2.60;99.90;;;;;;5033373;28;20061;-79
2021/12/02 12:36:56;;;;;;;1.75;1.30;;;2.60;99.90;;;;;;5052543;28;20454;-79
2021/12/02 12:39:31;;;;;;;5.10;2.65;;;2.30;99.90;;;;;;5026872;28;20400;-76
2021/12/02 12:42:13;;;;;;;4.03;2.42;;;2.70;99.90;;;;;;5062668;28;20037;-78
2021/12/02 12:44:58;;;;;;;5.30;2.50;;;2.70;99.90;;;;;;5042749;28;20037;-77
2021/12/02 12:47:45;;;;;;;7.57;1.83;;;2.60;99.90;;;;;;5041077;28;20044;-78
2021/12/02 12:50:42;;;;;;;4.95;1.70;;;2.50;99.90;;;;;;5045666;28;20045;-78
2021/12/02 12:53:16;;;;;;;4.38;1.10;;;2.40;99.90;;;;;;5058669;28;20063;-78
2021/12/02 12:55:55;;;;;;;1.73;1.13;;;2.20;99.90;;;;;;5061959;28;20071;-74
2021/12/02 12:58:23;;;;;;;1.33;0.85;;;2.10;99.90;;;;;;5053934;28;20055;-74
2021/12/02 13:00:52;;;;;;;1.45;0.80;;;2.20;99.90;;;;;;5017806;28;20048;-74
2021/12/02 13:03:28;;;;;;;2.22;0.80;;;2.10;99.90;;;;;;5075065;28;20049;-74
2021/12/02 13:06:09;;;;;;;0.65;0.45;;;2.00;99.90;;;;;;5041364;28;20052;-74
2021/12/02 13:08:53;;;;;;;0.45;0.45;;;1.90;99.90;;;;;;5056944;28;20041;-75
2021/12/02 13:11:33;;;;;;;0.88;0.57;;;1.90;99.90;;;;;;5021113;28;20040;-77
2021/12/02 13:14:01;;;;;;;2.78;0.60;;;1.80;99.90;;;;;;5056180;28;20504;-75
2021/12/02 13:16:30;;;;;;;1.40;0.98;;;2.60;99.90;;;;;;5045253;28;20115;-75
2021/12/02 13:19:11;;;;;;;1.17;0.73;;;1.70;99.90;;;;;;5040698;28;20045;-77
2021/12/02 13:21:37;;;;;;;3.35;1.00;;;1.80;99.90;;;;;;5051209;28;20033;-78
2021/12/02 13:24:16;;;;;;;3.58;0.90;;;1.70;99.90;;;;;;5031695;28;20649;-78
2021/12/02 13:26:46;;;;;;;3.03;1.20;;;1.70;99.90;;;;;;5070969;28;20049;-78
2021/12/02 13:29:22;;;;;;;1.63;0.80;;;1.70;99.90;;;;;;5072706;28;20132;-78
2021/12/02 13:31:52;;;;;;;1.67;0.90;;;1.60;99.90;;;;;;5032438;28;20068;-78
2021/12/02 13:34:19;;;;;;;1.85;0.80;;;1.60;99.90;;;;;;5085512;28;20072;-78
2021/12/02 13:36:46;;;;;;;1.90;0.90;;;1.50;99.90;;;;;;5032568;28;20112;-78
2021/12/02 13:39:25;;;;;;;3.33;1.30;;;1.50;99.90;;;;;;5029987;28;20064;-78
2021/12/02 13:41:56;;;;;;;3.15;1.48;;;1.50;99.90;;;;;;5043457;28;20041;-78
2021/12/02 13:44:36;;;;;;;2.63;1.73;;;1.50;99.90;;;;;;5064151;28;20036;-78
2021/12/02 13:47:20;;;;;;;2.50;1.50;;;1.50;99.90;;;;;;5043624;28;20542;-79
2021/12/02 13:49:55;;;;;;;3.28;2.05;;;1.60;99.90;;;;;;5028432;28;20033;-78
2021/12/02 13:52:49;;;;;;;7.35;3.33;;;1.60;99.90;;;;;;5035892;28;20057;-77
2021/12/02 13:55:20;;;;;;;3.65;2.40;;;1.60;99.90;;;;;;5045425;28;20033;-75
2021/12/02 13:57:51;;;;;;;;;;;1.60;99.90;;;;;;5049229;28;20075;-75